Time;durP1;ratioP1;P1;durP2;ratioP2;P2;SDS_P1;SDS_P2;PMS_P1;PMS_P2;Temp;Humidity;BMP_temperature;BMP_pressure;BME280_temperature;BME280_humidity;BME280_pressure;Samples;Min_cycle;Max_cycle;Signal;HPM_P1;HPM_P2
2023/10/09 00:01:19;;;;;;;2.95;2.85;;;;;;;;;;6018226;29;20065;-89
2023/10/09 00:04:20;;;;;;;3.38;3.08;;;;;;;;;;6024429;29;20046;-90
2023/10/09 00:07:23;;;;;;;2.90;2.80;;;;;;;;;;6023152;29;20147;-90
2023/10/09 00:10:35;;;;;;;2.67;2.58;;;;;;;;;;6016842;29;20128;-90
2023/10/09 00:13:37;;;;;;;2.40;2.40;;;;;;;;;;6022151;29;20428;-89
2023/10/09 00:17:00;;;;;;;2.67;2.58;;;;;;;;;;6022997;29;20041;-89
2023/10/09 00:20:17;;;;;;;2.22;2.22;;;;;;;;;;6023600;29;20089;-89
2023/10/09 00:23:19;;;;;;;2.58;2.47;;;;;;;;;;6024742;29;20506;-89
2023/10/09 00:38:34;;;;;;;2.60;2.50;;;;;;;;;;6019535;29;20638;-89
2023/10/09 00:41:36;;;;;;;2.80;2.47;;;;;;;;;;6017684;29;20042;-89
2023/10/09 00:49:02;;;;;;;2.35;2.30;;;;;;;;;;6023188;29;20168;-89
2023/10/09 00:52:04;;;;;;;3.03;2.92;;;;;;;;;;6017737;29;20064;-89
2023/10/09 00:55:36;;;;;;;3.30;3.00;;;;;;;;;;6017529;29;20628;-89
2023/10/09 00:58:39;;;;;;;2.08;2.08;;;;;;;;;;6021042;29;20205;-88
2023/10/09 01:01:56;;;;;;;2.70;2.65;;;;;;;;;;6022471;29;20057;-88
2023/10/09 01:04:59;;;;;;;3.20;3.10;;;;;;;;;;6022927;29;20050;-89
2023/10/09 01:08:01;;;;;;;2.55;2.45;;;;;;;;;;6018493;29;20049;-89
2023/10/09 01:11:09;;;;;;;2.83;2.72;;;;;;;;;;6016769;29;20116;-88
2023/10/09 01:14:11;;;;;;;3.00;2.90;;;;;;;;;;6022797;29;20052;-88
2023/10/09 01:17:29;;;;;;;2.38;2.38;;;;;;;;;;6004201;29;20132;-88
2023/10/09 01:20:40;;;;;;;2.90;2.70;;;;;;;;;;6018895;29;20057;-89
2023/10/09 01:27:16;;;;;;;3.00;2.90;;;;;;;;;;6017072;29;20077;-89
2023/10/09 01:30:18;;;;;;;2.90;2.80;;;;;;;;;;6021751;29;20151;-88
2023/10/09 01:33:27;;;;;;;2.28;2.28;;;;;;;;;;6020905;29;20049;-88
2023/10/09 01:36:38;;;;;;;2.00;2.00;;;;;;;;;;6020119;29;20042;-88
2023/10/09 01:39:42;;;;;;;2.42;2.42;;;;;;;;;;6020255;29;20053;-89
2023/10/09 01:42:49;;;;;;;2.00;2.00;;;;;;;;;;6011958;29;20423;-88
2023/10/09 01:45:52;;;;;;;2.75;2.65;;;;;;;;;;6022654;29;20049;-89
2023/10/09 01:48:54;;;;;;;2.17;2.17;;;;;;;;;;6019160;29;20528;-89
2023/10/09 01:52:00;;;;;;;1.98;1.98;;;;;;;;;;6020541;29;20254;-89
2023/10/09 01:55:27;;;;;;;2.85;2.75;;;;;;;;;;6035653;29;20049;-89
2023/10/09 01:58:27;;;;;;;2.20;2.20;;;;;;;;;;6019401;29;20049;-89
2023/10/09 02:01:29;;;;;;;2.90;2.80;;;;;;;;;;6028305;29;20050;-89
2023/10/09 02:04:31;;;;;;;2.63;2.55;;;;;;;;;;6021404;29;20057;-89
2023/10/09 02:07:54;;;;;;;3.05;2.92;;;;;;;;;;6027838;29;20040;-89
2023/10/09 02:10:56;;;;;;;2.38;2.33;;;;;;;;;;6028668;29;20056;-90
2023/10/09 02:13:57;;;;;;;2.75;2.65;;;;;;;;;;6017652;29;20678;-90
2023/10/09 02:17:06;;;;;;;2.30;2.20;;;;;;;;;;6026168;29;20432;-90
2023/10/09 02:20:17;;;;;;;2.45;2.35;;;;;;;;;;6029389;29;20548;-90
2023/10/09 02:23:24;;;;;;;2.50;2.40;;;;;;;;;;6022538;29;20527;-91
2023/10/09 02:27:06;;;;;;;2.20;2.20;;;;;;;;;;6021091;29;20315;-92
2023/10/09 02:29:49;;;;;;;2.30;2.30;;;;;;;;;;6023853;29;20069;-92
2023/10/09 02:32:53;;;;;;;2.85;2.75;;;;;;;;;;6016300;29;20050;-92
2023/10/09 02:35:59;;;;;;;2.30;2.20;;;;;;;;;;6019689;29;20318;-92
2023/10/09 02:39:01;;;;;;;4.28;3.97;;;;;;;;;;6014973;29;20409;-92
2023/10/09 02:45:24;;;;;;;2.70;2.63;;;;;;;;;;6025290;29;20053;-92
2023/10/09 02:48:30;;;;;;;2.00;2.00;;;;;;;;;;6021554;29;20136;-91
2023/10/09 02:51:32;;;;;;;3.30;3.20;;;;;;;;;;6026459;29;20784;-92
2023/10/09 02:54:35;;;;;;;2.90;2.83;;;;;;;;;;6027212;29;20046;-92
2023/10/09 02:57:38;;;;;;;2.70;2.60;;;;;;;;;;6024698;29;20057;-90
2023/10/09 03:00:44;;;;;;;2.25;2.25;;;;;;;;;;6024812;29;20038;-91
2023/10/09 03:03:47;;;;;;;3.80;2.47;;;;;;;;;;6012076;29;20052;-90
2023/10/09 03:06:53;;;;;;;4.72;3.35;;;;;;;;;;6022423;29;20050;-90
2023/10/09 03:09:55;;;;;;;2.35;2.35;;;;;;;;;;6017189;29;20045;-90
2023/10/09 03:13:03;;;;;;;3.17;2.97;;;;;;;;;;6026364;29;20057;-90
2023/10/09 03:16:04;;;;;;;3.03;2.92;;;;;;;;;;6027371;29;20425;-90
2023/10/09 03:19:07;;;;;;;2.83;2.72;;;;;;;;;;6022181;29;20128;-89
2023/10/09 03:22:11;;;;;;;3.75;3.40;;;;;;;;;;6021118;29;20044;-90
2023/10/09 03:25:16;;;;;;;2.70;2.60;;;;;;;;;;6022759;29;20046;-90
2023/10/09 03:28:18;;;;;;;3.75;3.55;;;;;;;;;;6021007;29;20038;-89
2023/10/09 03:31:22;;;;;;;2.78;2.67;;;;;;;;;;6019444;29;20053;-90
2023/10/09 03:34:23;;;;;;;2.92;2.83;;;;;;;;;;6027264;29;20046;-90
2023/10/09 03:37:34;;;;;;;2.45;2.35;;;;;;;;;;6022029;29;20056;-91
2023/10/09 03:40:39;;;;;;;2.67;2.58;;;;;;;;;;6026620;29;20542;-90
2023/10/09 03:43:46;;;;;;;3.33;3.22;;;;;;;;;;6024602;29;20183;-90
2023/10/09 03:46:51;;;;;;;5.32;4.82;;;;;;;;;;6027090;29;20120;-90
2023/10/09 03:49:53;;;;;;;3.97;3.67;;;;;;;;;;6024575;29;20217;-90
2023/10/09 03:52:56;;;;;;;3.65;3.50;;;;;;;;;;6025209;29;20046;-91
2023/10/09 03:55:58;;;;;;;5.38;3.50;;;;;;;;;;6027573;29;20041;-91
2023/10/09 03:59:01;;;;;;;4.57;4.28;;;;;;;;;;6021962;29;20576;-91
2023/10/09 04:02:04;;;;;;;5.93;4.90;;;;;;;;;;6025593;29;20440;-92
2023/10/09 04:05:08;;;;;;;3.70;3.60;;;;;;;;;;6010541;29;20053;-91
2023/10/09 04:08:29;;;;;;;9.07;5.15;;;;;;;;;;6021026;29;20053;-91
2023/10/09 04:11:33;;;;;;;11.65;6.32;;;;;;;;;;6026482;29;20075;-91
2023/10/09 04:14:35;;;;;;;5.85;5.55;;;;;;;;;;6026933;29;20056;-91
2023/10/09 04:17:42;;;;;;;11.50;7.50;;;;;;;;;;6018626;29;20435;-93
2023/10/09 04:23:59;;;;;;;5.47;5.18;;;;;;;;;;6024646;29;20046;-94
2023/10/09 04:27:02;;;;;;;6.65;5.85;;;;;;;;;;6015625;29;20049;-93
2023/10/09 04:30:07;;;;;;;7.00;6.28;;;;;;;;;;6021600;29;20052;-96
2023/10/09 04:33:27;;;;;;;8.15;7.43;;;;;;;;;;6023915;29;20579;-94
2023/10/09 04:36:42;;;;;;;5.72;5.43;;;;;;;;;;6022971;29;20049;-95
2023/10/09 04:39:47;;;;;;;6.95;6.40;;;;;;;;;;6022456;29;20057;-95
2023/10/09 04:43:06;;;;;;;7.63;7.07;;;;;;;;;;6021930;29;20129;-94
2023/10/09 04:46:12;;;;;;;7.10;6.63;;;;;;;;;;6026546;29;20061;-92
2023/10/09 04:49:27;;;;;;;7.80;7.28;;;;;;;;;;6024277;29;20068;-91
2023/10/09 04:55:38;;;;;;;8.50;7.45;;;;;;;;;;6022128;29;20531;-90
2023/10/09 04:58:40;;;;;;;5.70;5.35;;;;;;;;;;6024392;29;20050;-91
2023/10/09 05:01:57;;;;;;;8.30;7.55;;;;;;;;;;6020057;29;20512;-93
2023/10/09 05:15:04;;;;;;;6.60;6.10;;;;;;;;;;6019570;29;20145;-91
2023/10/09 05:18:09;;;;;;;11.70;7.35;;;;;;;;;;6024571;29;20413;-92
2023/10/09 05:24:47;;;;;;;6.43;6.03;;;;;;;;;;6053410;29;20060;-93
2023/10/09 05:27:52;;;;;;;6.18;5.78;;;;;;;;;;6044383;29;20567;-92
2023/10/09 05:31:16;;;;;;;6.40;5.80;;;;;;;;;;6031230;29;20148;-95
2023/10/09 05:34:19;;;;;;;7.25;6.45;;;;;;;;;;6052796;29;20263;-93
2023/10/09 05:38:01;;;;;;;6.60;6.03;;;;;;;;;;6052908;29;20044;-93
2023/10/09 05:40:53;;;;;;;6.97;6.32;;;;;;;;;;6048422;29;20507;-94
2023/10/09 05:47:32;;;;;;;6.78;6.35;;;;;;;;;;6034910;29;20053;-93
2023/10/09 06:04:31;;;;;;;7.32;6.75;;;;;;;;;;6029863;29;20139;-95
2023/10/09 06:07:49;;;;;;;13.55;5.55;;;;;;;;;;6026008;29;20052;-95
2023/10/09 06:11:38;;;;;;;11.32;6.25;;;;;;;;;;6020712;29;20462;-92
2023/10/09 06:17:50;;;;;;;9.40;6.07;;;;;;;;;;6015365;29;20406;-93
2023/10/09 06:24:19;;;;;;;6.63;6.22;;;;;;;;;;6025671;29;20053;-90
2023/10/09 06:27:56;;;;;;;5.10;4.80;;;;;;;;;;6022503;29;20042;-91
2023/10/09 06:30:49;;;;;;;6.00;5.65;;;;;;;;;;6021743;29;20056;-90
2023/10/09 06:43:52;;;;;;;3.05;2.95;;;;;;;;;;6045856;29;20677;-93
2023/10/09 06:47:07;;;;;;;5.03;4.63;;;;;;;;;;6033927;29;20083;-93
2023/10/09 06:53:28;;;;;;;14.02;5.22;;;;;;;;;;6053831;29;20056;-92
2023/10/09 07:00:15;;;;;;;6.50;6.07;;;;;;;;;;6042106;29;20089;-91
2023/10/09 07:02:54;;;;;;;6.13;5.72;;;;;;;;;;6048335;29;20404;-90
2023/10/09 07:06:09;;;;;;;5.30;5.00;;;;;;;;;;6035399;29;20596;-91
2023/10/09 07:12:25;;;;;;;5.20;5.00;;;;;;;;;;6052797;29;20503;-90
2023/10/09 07:16:23;;;;;;;6.72;6.22;;;;;;;;;;6022814;29;20521;-91
2023/10/09 07:19:09;;;;;;;5.50;5.18;;;;;;;;;;6038019;29;20052;-93
2023/10/09 07:22:29;;;;;;;5.93;4.93;;;;;;;;;;6043164;29;20458;-93
2023/10/09 07:29:01;;;;;;;7.15;5.40;;;;;;;;;;6023010;29;20049;-93
2023/10/09 07:32:12;;;;;;;7.85;5.25;;;;;;;;;;6026871;29;20049;-90
2023/10/09 07:35:45;;;;;;;8.23;7.18;;;;;;;;;;6027600;29;20191;-93
2023/10/09 07:38:37;;;;;;;6.60;5.95;;;;;;;;;;6027295;29;20041;-94
2023/10/09 07:41:44;;;;;;;8.30;7.47;;;;;;;;;;6027889;29;20136;-92
2023/10/09 07:44:52;;;;;;;6.80;6.25;;;;;;;;;;6009563;29;20508;-93
2023/10/09 07:48:02;;;;;;;6.00;5.60;;;;;;;;;;6028708;29;20045;-92
2023/10/09 07:51:11;;;;;;;7.10;6.10;;;;;;;;;;6027103;29;20068;-91
2023/10/09 07:57:42;;;;;;;5.13;4.82;;;;;;;;;;6025962;29;20053;-94
2023/10/09 08:01:07;;;;;;;5.30;5.10;;;;;;;;;;6025184;29;20053;-89
2023/10/09 08:04:37;;;;;;;4.75;4.47;;;;;;;;;;6026691;29;20050;-92
2023/10/09 08:07:54;;;;;;;6.10;5.68;;;;;;;;;;6019332;29;20132;-92
2023/10/09 08:17:37;;;;;;;5.55;5.20;;;;;;;;;;6016142;29;20116;-93
2023/10/09 08:24:04;;;;;;;22.15;6.45;;;;;;;;;;6024910;29;20080;-92
2023/10/09 08:33:42;;;;;;;8.13;7.50;;;;;;;;;;6024956;29;20088;-94
2023/10/09 08:36:52;;;;;;;7.00;6.35;;;;;;;;;;6025360;29;20507;-93
2023/10/09 08:39:54;;;;;;;4.30;3.95;;;;;;;;;;6026512;29;20041;-90
2023/10/09 08:42:58;;;;;;;5.65;5.25;;;;;;;;;;6021096;29;20060;-89
2023/10/09 08:46:06;;;;;;;6.28;5.82;;;;;;;;;;6024734;29;20096;-89
2023/10/09 08:49:10;;;;;;;7.00;6.53;;;;;;;;;;6022079;29;20084;-89
2023/10/09 08:52:13;;;;;;;4.40;4.25;;;;;;;;;;6024440;29;20458;-89
2023/10/09 08:55:17;;;;;;;5.22;4.88;;;;;;;;;;6017510;29;20102;-90
2023/10/09 08:58:28;;;;;;;5.57;5.18;;;;;;;;;;6017766;29;20186;-90
2023/10/09 09:01:32;;;;;;;5.93;5.53;;;;;;;;;;6029100;29;20052;-89
2023/10/09 09:04:40;;;;;;;6.10;5.28;;;;;;;;;;6022907;29;20083;-88
2023/10/09 09:07:42;;;;;;;5.68;5.15;;;;;;;;;;6020076;29;20107;-88
2023/10/09 09:10:46;;;;;;;5.85;5.53;;;;;;;;;;6022405;29;20198;-88
2023/10/09 09:14:18;;;;;;;5.43;5.13;;;;;;;;;;6022998;29;20050;-90
2023/10/09 09:17:23;;;;;;;5.43;5.03;;;;;;;;;;6022713;29;20112;-89
2023/10/09 09:20:34;;;;;;;4.45;4.15;;;;;;;;;;6020841;29;20061;-89
2023/10/09 09:23:45;;;;;;;5.30;4.97;;;;;;;;;;6035510;29;20054;-90
2023/10/09 09:26:47;;;;;;;;;;;;;;;;;;5999592;29;20073;-90
2023/10/09 09:30:07;;;;;;;5.93;5.50;;;;;;;;;;6023076;29;20280;-90
2023/10/09 09:33:39;;;;;;;6.95;6.30;;;;;;;;;;6010389;29;20160;-91
2023/10/09 09:36:53;;;;;;;5.57;5.30;;;;;;;;;;6019904;29;20054;-90
2023/10/09 09:40:11;;;;;;;5.32;5.03;;;;;;;;;;6022468;29;20516;-93
2023/10/09 09:43:21;;;;;;;6.57;5.65;;;;;;;;;;6016253;29;20218;-90
2023/10/09 09:46:33;;;;;;;5.55;5.10;;;;;;;;;;6033276;29;20592;-93
2023/10/09 09:49:38;;;;;;;6.22;5.72;;;;;;;;;;6022252;29;20053;-93
2023/10/09 09:52:40;;;;;;;5.90;5.60;;;;;;;;;;6025175;29;20049;-95
2023/10/09 09:55:43;;;;;;;6.22;5.82;;;;;;;;;;6026514;29;20049;-95
2023/10/09 09:59:30;;;;;;;4.68;4.47;;;;;;;;;;6022746;29;20065;-95
2023/10/09 10:02:50;;;;;;;7.80;7.13;;;;;;;;;;6023529;29;20489;-94
2023/10/09 10:05:56;;;;;;;7.47;6.97;;;;;;;;;;6018592;29;20132;-93
2023/10/09 10:08:58;;;;;;;7.47;6.88;;;;;;;;;;6026727;29;20041;-92
2023/10/09 10:12:05;;;;;;;6.55;5.95;;;;;;;;;;6025577;29;20066;-95
2023/10/09 10:15:20;;;;;;;;;;;;;;;;;;6039132;29;20525;-92
2023/10/09 10:18:23;;;;;;;5.90;5.60;;;;;;;;;;6023747;29;19924;-91
2023/10/09 10:21:41;;;;;;;5.72;5.32;;;;;;;;;;6027562;29;20053;-92
2023/10/09 10:24:52;;;;;;;6.82;5.80;;;;;;;;;;6025989;29;20142;-92
2023/10/09 10:28:14;;;;;;;6.82;6.28;;;;;;;;;;6023508;29;20140;-93
2023/10/09 10:31:16;;;;;;;5.25;4.88;;;;;;;;;;6021246;29;20512;-90
2023/10/09 10:34:23;;;;;;;4.95;4.68;;;;;;;;;;6028490;29;20041;-90
2023/10/09 10:38:15;;;;;;;6.63;6.03;;;;;;;;;;6027142;29;20049;-96
2023/10/09 10:41:11;;;;;;;5.18;4.97;;;;;;;;;;6027998;29;20045;-96
2023/10/09 10:47:35;;;;;;;4.63;4.32;;;;;;;;;;6025582;29;20054;-96
2023/10/09 10:50:37;;;;;;;5.05;4.45;;;;;;;;;;6018238;29;20068;-94
2023/10/09 10:53:57;;;;;;;4.15;4.00;;;;;;;;;;6025626;29;20083;-95
2023/10/09 10:57:00;;;;;;;6.32;4.50;;;;;;;;;;6041577;29;20245;-95
2023/10/09 11:10:53;;;;;;;5.78;5.15;;;;;;;;;;6090000;23;20050;-92
2023/10/09 11:14:42;;;;;;;4.90;4.72;;;;;;;;;;6773671;24;20057;-95
2023/10/09 11:17:45;;;;;;;6.35;5.75;;;;;;;;;;6018467;29;20046;-96
2023/10/09 11:27:32;;;;;;;6.95;5.70;;;;;;;;;;6021713;29;20114;-96
2023/10/09 11:30:35;;;;;;;5.05;4.78;;;;;;;;;;6007478;29;20057;-93
2023/10/09 11:33:53;;;;;;;5.70;5.28;;;;;;;;;;6028342;29;20045;-94
2023/10/09 11:36:57;;;;;;;5.78;5.40;;;;;;;;;;6011092;29;20053;-95
2023/10/09 11:40:00;;;;;;;4.72;4.43;;;;;;;;;;6042204;29;20045;-96
2023/10/09 11:43:03;;;;;;;4.95;4.47;;;;;;;;;;6026937;29;20049;-95
2023/10/09 11:46:13;;;;;;;4.15;3.97;;;;;;;;;;6022938;29;20058;-94
2023/10/09 11:49:26;;;;;;;5.13;4.80;;;;;;;;;;6016728;29;20049;-94
2023/10/09 11:55:33;;;;;;;4.45;4.25;;;;;;;;;;6017371;29;20037;-92
2023/10/09 11:58:40;;;;;;;4.95;4.72;;;;;;;;;;6020874;29;20465;-90
2023/10/09 12:01:52;;;;;;;5.35;4.05;;;;;;;;;;6025518;29;20053;-92
2023/10/09 12:04:55;;;;;;;3.88;3.67;;;;;;;;;;6028545;29;20116;-93
2023/10/09 12:08:01;;;;;;;5.80;5.50;;;;;;;;;;6025881;29;20505;-94
2023/10/09 12:11:03;;;;;;;5.20;4.90;;;;;;;;;;6025312;29;20038;-92
2023/10/09 12:14:05;;;;;;;4.20;3.90;;;;;;;;;;6021588;29;20045;-92
2023/10/09 12:17:07;;;;;;;3.88;3.67;;;;;;;;;;6018186;29;20197;-91
2023/10/09 12:20:14;;;;;;;6.72;5.05;;;;;;;;;;6013694;29;20047;-90
2023/10/09 12:23:20;;;;;;;5.10;4.60;;;;;;;;;;6022913;29;20053;-89
2023/10/09 12:26:22;;;;;;;3.90;3.80;;;;;;;;;;6026499;29;20093;-88
2023/10/09 12:29:24;;;;;;;4.18;4.00;;;;;;;;;;6024929;29;20064;-89
2023/10/09 12:32:26;;;;;;;4.50;4.28;;;;;;;;;;6026333;29;20142;-91
2023/10/09 12:35:33;;;;;;;5.32;4.82;;;;;;;;;;6025434;29;20076;-91
2023/10/09 12:38:36;;;;;;;4.93;4.70;;;;;;;;;;6026542;29;20061;-89
2023/10/09 12:41:41;;;;;;;5.22;5.03;;;;;;;;;;6009031;29;20158;-90
2023/10/09 12:44:43;;;;;;;4.72;4.53;;;;;;;;;;6025063;29;20053;-89
2023/10/09 12:47:45;;;;;;;4.63;4.43;;;;;;;;;;6021080;29;20509;-91
2023/10/09 12:50:53;;;;;;;5.65;5.35;;;;;;;;;;6021780;29;20054;-90
2023/10/09 12:53:58;;;;;;;4.22;4.05;;;;;;;;;;6025434;29;20041;-90
2023/10/09 12:57:00;;;;;;;4.85;4.53;;;;;;;;;;6024259;29;20053;-90
2023/10/09 13:00:10;;;;;;;4.88;4.65;;;;;;;;;;6025772;29;20194;-92
2023/10/09 13:03:18;;;;;;;4.72;4.53;;;;;;;;;;6015337;29;20512;-89
2023/10/09 13:06:23;;;;;;;4.63;4.43;;;;;;;;;;6019744;29;20440;-90
2023/10/09 13:09:35;;;;;;;5.25;5.05;;;;;;;;;;6015390;29;20100;-90
2023/10/09 13:12:44;;;;;;;4.65;4.45;;;;;;;;;;6022531;29;20087;-90
2023/10/09 13:15:45;;;;;;;5.70;5.15;;;;;;;;;;6016622;29;20052;-90
2023/10/09 13:18:49;;;;;;;5.57;5.30;;;;;;;;;;6025207;29;20057;-90
2023/10/09 13:21:51;;;;;;;4.57;4.28;;;;;;;;;;6021313;29;20404;-89
2023/10/09 13:25:03;;;;;;;4.60;4.40;;;;;;;;;;6019511;29;20053;-89
2023/10/09 13:28:05;;;;;;;4.95;4.65;;;;;;;;;;6018789;29;20516;-88
2023/10/09 13:31:11;;;;;;;5.25;4.93;;;;;;;;;;6022047;29;20045;-88
2023/10/09 13:34:15;;;;;;;5.63;5.00;;;;;;;;;;6023326;29;20117;-88
2023/10/09 13:37:21;;;;;;;4.25;4.10;;;;;;;;;;6021462;29;20041;-89
2023/10/09 13:40:33;;;;;;;5.57;5.25;;;;;;;;;;6024892;29;20111;-89
2023/10/09 13:43:35;;;;;;;7.05;5.75;;;;;;;;;;6020880;29;20057;-88
2023/10/09 13:46:42;;;;;;;4.22;4.03;;;;;;;;;;6022461;29;20735;-88
2023/10/09 13:49:53;;;;;;;5.95;5.55;;;;;;;;;;6014688;29;20172;-89
2023/10/09 13:52:56;;;;;;;4.80;4.53;;;;;;;;;;6018969;29;20060;-89
2023/10/09 13:55:59;;;;;;;4.60;4.40;;;;;;;;;;6023606;29;20048;-90
2023/10/09 13:59:01;;;;;;;4.45;4.22;;;;;;;;;;6027191;29;20473;-89
2023/10/09 14:02:09;;;;;;;5.35;5.03;;;;;;;;;;6026285;29;20049;-93
2023/10/09 14:05:12;;;;;;;7.43;5.25;;;;;;;;;;6026479;29;20045;-91
2023/10/09 14:08:16;;;;;;;4.65;4.43;;;;;;;;;;6022521;29;20082;-94
2023/10/09 14:11:17;;;;;;;5.45;5.13;;;;;;;;;;6028719;29;20081;-92
2023/10/09 14:14:24;;;;;;;5.47;5.18;;;;;;;;;;6028882;29;20506;-94
2023/10/09 14:17:29;;;;;;;6.45;6.05;;;;;;;;;;6026593;29;20576;-94
2023/10/09 14:20:31;;;;;;;3.63;3.53;;;;;;;;;;6023478;29;20049;-95
2023/10/09 14:23:34;;;;;;;5.20;4.85;;;;;;;;;;6028438;29;20046;-93
2023/10/09 14:26:37;;;;;;;4.65;4.35;;;;;;;;;;6024000;29;20420;-92
2023/10/09 14:29:40;;;;;;;4.97;4.78;;;;;;;;;;6027536;29;20527;-95
2023/10/09 14:32:51;;;;;;;5.47;5.15;;;;;;;;;;6027272;29;20733;-93
2023/10/09 14:35:54;;;;;;;5.60;5.15;;;;;;;;;;6013498;29;20525;-92
2023/10/09 14:38:57;;;;;;;4.70;4.50;;;;;;;;;;6022846;29;20041;-95
2023/10/09 14:42:00;;;;;;;3.45;3.35;;;;;;;;;;6028212;29;20493;-92
2023/10/09 14:45:08;;;;;;;5.80;5.03;;;;;;;;;;6023235;29;20105;-93
2023/10/09 14:48:11;;;;;;;3.97;3.88;;;;;;;;;;6026356;29;20056;-91
2023/10/09 14:51:13;;;;;;;4.95;4.65;;;;;;;;;;6022253;29;20610;-90
2023/10/09 14:54:17;;;;;;;4.88;4.68;;;;;;;;;;6017634;29;20053;-90
2023/10/09 14:57:19;;;;;;;5.07;4.78;;;;;;;;;;6020375;29;20046;-90
2023/10/09 15:00:24;;;;;;;4.82;4.35;;;;;;;;;;6025474;29;20446;-92
2023/10/09 15:03:28;;;;;;;4.90;4.60;;;;;;;;;;6022075;29;20500;-95
2023/10/09 15:06:33;;;;;;;4.47;4.18;;;;;;;;;;6050046;29;20037;-95
2023/10/09 15:09:41;;;;;;;4.65;4.25;;;;;;;;;;6040442;29;20069;-96
2023/10/09 15:12:46;;;;;;;4.95;4.65;;;;;;;;;;6039663;29;20132;-96
2023/10/09 15:15:51;;;;;;;4.15;3.88;;;;;;;;;;6041217;29;20457;-94
2023/10/09 15:18:57;;;;;;;3.95;3.75;;;;;;;;;;6026869;29;20812;-94
2023/10/09 15:22:09;;;;;;;5.90;5.53;;;;;;;;;;6028707;29;20046;-95
2023/10/09 15:25:14;;;;;;;4.25;4.05;;;;;;;;;;6010172;29;20637;-93
2023/10/09 15:28:17;;;;;;;6.72;5.40;;;;;;;;;;6022450;29;20052;-91
2023/10/09 15:31:21;;;;;;;4.43;4.22;;;;;;;;;;6028999;29;20399;-92
2023/10/09 15:34:24;;;;;;;5.55;5.22;;;;;;;;;;6029842;29;20111;-93
2023/10/09 15:37:26;;;;;;;4.55;4.35;;;;;;;;;;6037805;29;20057;-95
2023/10/09 15:40:36;;;;;;;4.15;3.97;;;;;;;;;;6037045;29;20045;-95
2023/10/09 15:43:39;;;;;;;4.03;3.83;;;;;;;;;;6030446;29;20061;-92
2023/10/09 15:46:45;;;;;;;4.50;4.30;;;;;;;;;;6030138;29;20064;-95
2023/10/09 15:49:47;;;;;;;8.82;5.15;;;;;;;;;;6028437;29;20053;-95
2023/10/09 15:52:53;;;;;;;3.88;3.45;;;;;;;;;;6037624;29;20057;-95
2023/10/09 15:55:57;;;;;;;3.63;3.53;;;;;;;;;;6022639;29;20073;-96
2023/10/09 15:59:02;;;;;;;3.72;3.55;;;;;;;;;;6037434;29;20053;-92
2023/10/09 16:02:03;;;;;;;3.78;3.67;;;;;;;;;;6027759;29;20074;-93
2023/10/09 16:05:05;;;;;;;3.72;3.63;;;;;;;;;;6025227;29;20049;-93
2023/10/09 16:08:08;;;;;;;6.25;4.15;;;;;;;;;;6022982;29;20548;-95
2023/10/09 16:11:10;;;;;;;6.10;5.60;;;;;;;;;;6019800;29;20114;-93
2023/10/09 16:14:15;;;;;;;5.13;4.93;;;;;;;;;;6010970;29;20079;-92
2023/10/09 16:17:18;;;;;;;3.17;3.08;;;;;;;;;;6023482;29;20052;-91
2023/10/09 16:20:25;;;;;;;3.90;3.80;;;;;;;;;;6019060;29;20523;-91
2023/10/09 16:23:28;;;;;;;6.13;4.03;;;;;;;;;;6016645;29;20045;-91
2023/10/09 16:26:39;;;;;;;4.00;3.90;;;;;;;;;;6013128;29;20489;-91
2023/10/09 16:29:44;;;;;;;3.90;3.80;;;;;;;;;;5998723;29;20062;-91
2023/10/09 16:32:52;;;;;;;3.05;2.95;;;;;;;;;;6019823;29;20052;-94
2023/10/09 16:35:59;;;;;;;3.40;3.30;;;;;;;;;;6015388;29;20151;-92
2023/10/09 16:39:01;;;;;;;3.40;3.30;;;;;;;;;;6019634;29;20049;-92
2023/10/09 16:42:04;;;;;;;3.10;3.00;;;;;;;;;;6023368;29;20056;-92
2023/10/09 16:45:08;;;;;;;3.80;3.60;;;;;;;;;;6017747;29;20041;-92
2023/10/09 16:48:11;;;;;;;4.72;4.47;;;;;;;;;;6018687;29;20061;-93
2023/10/09 16:51:13;;;;;;;3.20;3.10;;;;;;;;;;6017047;29;20052;-91
2023/10/09 16:54:15;;;;;;;3.30;3.20;;;;;;;;;;6014228;29;20137;-91
2023/10/09 16:57:18;;;;;;;3.58;3.47;;;;;;;;;;6017509;29;20556;-90
2023/10/09 17:00:29;;;;;;;3.60;3.50;;;;;;;;;;6016550;29;20379;-90
2023/10/09 17:03:31;;;;;;;3.75;3.47;;;;;;;;;;6017446;29;20401;-90
2023/10/09 17:06:34;;;;;;;3.28;3.17;;;;;;;;;;6013791;29;20041;-89
2023/10/09 17:09:40;;;;;;;3.17;3.08;;;;;;;;;;6019018;29;20508;-90
2023/10/09 17:12:46;;;;;;;3.30;3.20;;;;;;;;;;6017274;29;20061;-90
2023/10/09 17:15:52;;;;;;;3.20;3.10;;;;;;;;;;6018729;29;20046;-96
2023/10/09 17:18:54;;;;;;;3.22;3.13;;;;;;;;;;6023711;29;20113;-96
2023/10/09 17:22:05;;;;;;;2.95;2.85;;;;;;;;;;6027374;29;20054;-95
2023/10/09 17:25:11;;;;;;;3.13;3.03;;;;;;;;;;6021131;29;20041;-95
2023/10/09 17:28:17;;;;;;;4.00;3.88;;;;;;;;;;6029753;29;20042;-95
2023/10/09 17:31:25;;;;;;;4.40;4.07;;;;;;;;;;6023535;29;20041;-96
2023/10/09 17:34:31;;;;;;;2.75;2.65;;;;;;;;;;6029670;29;20461;-96
2023/10/09 17:37:35;;;;;;;2.75;2.65;;;;;;;;;;6034042;29;20061;-96
2023/10/09 17:40:52;;;;;;;2.85;2.75;;;;;;;;;;6007836;29;20080;-94
2023/10/09 17:43:57;;;;;;;3.63;3.50;;;;;;;;;;6015106;29;20783;-93
2023/10/09 17:46:59;;;;;;;3.35;3.25;;;;;;;;;;6018683;29;20076;-92
2023/10/09 17:50:04;;;;;;;4.07;3.97;;;;;;;;;;6015632;29;20037;-95
2023/10/09 17:53:06;;;;;;;3.03;2.92;;;;;;;;;;6012325;29;20068;-94
2023/10/09 17:56:08;;;;;;;3.72;3.63;;;;;;;;;;6016427;29;20050;-91
2023/10/09 17:59:11;;;;;;;4.22;4.03;;;;;;;;;;6018276;29;20073;-91
2023/10/09 18:02:13;;;;;;;2.97;2.88;;;;;;;;;;6013972;29;20068;-90
2023/10/09 18:05:19;;;;;;;2.88;2.78;;;;;;;;;;6020233;29;20052;-93
2023/10/09 18:08:22;;;;;;;2.70;2.65;;;;;;;;;;6018316;29;20544;-93
2023/10/09 18:11:24;;;;;;;5.30;3.67;;;;;;;;;;6017880;29;20104;-90
2023/10/09 18:14:26;;;;;;;4.13;3.85;;;;;;;;;;6008685;29;20148;-91
2023/10/09 18:17:28;;;;;;;3.58;3.47;;;;;;;;;;6019942;29;20045;-90
2023/10/09 18:20:30;;;;;;;3.10;3.00;;;;;;;;;;6016995;29;20102;-89
2023/10/09 18:23:36;;;;;;;3.92;3.72;;;;;;;;;;6012615;29;20544;-90
2023/10/09 18:26:37;;;;;;;4.28;4.07;;;;;;;;;;6018002;29;20045;-89
2023/10/09 18:29:39;;;;;;;3.40;3.30;;;;;;;;;;6017678;29;20500;-91
2023/10/09 18:32:44;;;;;;;3.53;3.42;;;;;;;;;;6015926;29;20405;-90
2023/10/09 18:35:46;;;;;;;3.03;2.92;;;;;;;;;;6015626;29;20128;-89
2023/10/09 18:38:54;;;;;;;4.85;3.78;;;;;;;;;;6016187;29;20052;-90
2023/10/09 18:41:56;;;;;;;3.45;3.35;;;;;;;;;;6019032;29;20536;-90
2023/10/09 18:44:57;;;;;;;3.75;3.65;;;;;;;;;;6024013;29;20392;-91
2023/10/09 18:48:00;;;;;;;4.43;4.20;;;;;;;;;;6023916;29;20141;-90
2023/10/09 18:51:02;;;;;;;3.33;3.22;;;;;;;;;;6011572;29;20072;-90
2023/10/09 18:54:05;;;;;;;3.88;3.58;;;;;;;;;;6018784;29;20129;-90
2023/10/09 18:57:06;;;;;;;3.45;3.35;;;;;;;;;;6022737;29;20548;-90
2023/10/09 19:00:11;;;;;;;3.53;3.33;;;;;;;;;;6013393;29;20089;-90
2023/10/09 19:03:16;;;;;;;4.45;4.15;;;;;;;;;;6014061;29;20041;-90
2023/10/09 19:06:22;;;;;;;3.28;3.17;;;;;;;;;;6018957;29;20049;-90
2023/10/09 19:09:23;;;;;;;3.92;3.63;;;;;;;;;;6014380;29;20045;-91
2023/10/09 19:12:25;;;;;;;3.50;3.40;;;;;;;;;;6025345;29;20061;-90
2023/10/09 19:15:27;;;;;;;3.53;3.42;;;;;;;;;;6015953;29;20049;-88
2023/10/09 19:18:34;;;;;;;3.17;3.08;;;;;;;;;;6019271;29;20605;-90
2023/10/09 19:21:36;;;;;;;3.30;3.20;;;;;;;;;;6018532;29;20584;-90
2023/10/09 19:24:40;;;;;;;3.47;3.28;;;;;;;;;;6017752;29;20052;-90
2023/10/09 19:27:51;;;;;;;3.90;3.70;;;;;;;;;;6014290;29;20284;-90
2023/10/09 19:31:02;;;;;;;3.47;3.38;;;;;;;;;;6017723;29;20042;-90
2023/10/09 19:34:04;;;;;;;3.50;3.30;;;;;;;;;;6011665;29;20052;-91
2023/10/09 19:37:08;;;;;;;3.22;3.13;;;;;;;;;;6016994;29;20544;-90
2023/10/09 19:40:11;;;;;;;4.47;3.15;;;;;;;;;;6020975;29;20048;-89
2023/10/09 19:43:15;;;;;;;3.33;3.13;;;;;;;;;;6020695;29;20052;-90
2023/10/09 19:46:17;;;;;;;3.40;3.20;;;;;;;;;;6019504;29;20049;-91
2023/10/09 19:49:18;;;;;;;3.35;3.25;;;;;;;;;;6018356;29;20038;-91
2023/10/09 19:52:22;;;;;;;3.63;3.42;;;;;;;;;;6021325;29;20086;-91
2023/10/09 19:55:23;;;;;;;3.80;3.50;;;;;;;;;;6017956;29;20037;-91
2023/10/09 19:58:25;;;;;;;4.65;4.35;;;;;;;;;;6025007;29;20453;-91
2023/10/09 20:01:27;;;;;;;7.57;3.47;;;;;;;;;;6017241;29;20058;-91
2023/10/09 20:04:32;;;;;;;2.85;2.78;;;;;;;;;;6020428;29;20049;-90
2023/10/09 20:07:38;;;;;;;3.63;3.53;;;;;;;;;;6021521;29;20846;-91
2023/10/09 20:10:40;;;;;;;2.72;2.63;;;;;;;;;;6023008;29;20237;-91
2023/10/09 20:13:43;;;;;;;2.88;2.78;;;;;;;;;;6020532;29;20084;-91
2023/10/09 20:16:48;;;;;;;3.55;2.78;;;;;;;;;;6012015;29;20042;-90
2023/10/09 20:19:56;;;;;;;7.60;3.88;;;;;;;;;;6011394;29;20148;-91
2023/10/09 20:23:03;;;;;;;2.55;2.45;;;;;;;;;;6018984;29;20150;-90
2023/10/09 20:26:14;;;;;;;3.63;3.40;;;;;;;;;;6004711;29;20046;-90
2023/10/09 20:29:17;;;;;;;3.25;3.00;;;;;;;;;;6021308;29;20050;-90
2023/10/09 20:32:20;;;;;;;3.30;3.20;;;;;;;;;;6017176;29;20046;-93
2023/10/09 20:35:26;;;;;;;2.70;2.65;;;;;;;;;;6023198;29;20045;-90
2023/10/09 20:38:28;;;;;;;3.10;3.00;;;;;;;;;;6020902;29;20132;-90
2023/10/09 20:41:30;;;;;;;9.13;3.08;;;;;;;;;;6024328;29;20049;-91
2023/10/09 20:44:33;;;;;;;2.72;2.63;;;;;;;;;;6020384;29;20057;-91
2023/10/09 20:47:36;;;;;;;2.47;2.47;;;;;;;;;;6022033;29;20049;-90
2023/10/09 20:50:42;;;;;;;3.10;3.00;;;;;;;;;;6022364;29;20529;-92
2023/10/09 20:53:44;;;;;;;2.65;2.65;;;;;;;;;;6019103;29;20085;-91